createdAt,value
2023-09-14T00:03:14.716Z,85.80
2023-09-14T00:08:18.054Z,83.40
2023-09-14T00:13:20.195Z,85.70
2023-09-14T00:18:22.866Z,85.20
2023-09-14T00:23:25.097Z,84.60
2023-09-14T00:28:27.280Z,84.00
2023-09-14T00:33:29.462Z,83.90
2023-09-14T00:38:31.595Z,84.30
2023-09-14T00:43:35.609Z,85.00
2023-09-14T00:48:38.942Z,84.70
2023-09-14T00:53:41.516Z,83.90
2023-09-14T00:58:44.042Z,84.00
2023-09-14T01:03:47.089Z,84.10
2023-09-14T01:08:50.589Z,83.60
2023-09-14T01:14:48.793Z,83.80
2023-09-14T01:20:17.716Z,84.00
2023-09-14T01:25:46.908Z,83.40
2023-09-14T01:30:49.964Z,83.70
2023-09-14T01:35:57.981Z,83.80
2023-09-14T01:41:02.508Z,83.70
2023-09-14T01:46:05.800Z,83.90
2023-09-14T01:51:08.115Z,84.50
2023-09-14T01:56:10.361Z,83.80
2023-09-14T02:01:14.360Z,83.70
2023-09-14T02:06:16.644Z,83.60
2023-09-14T02:11:18.830Z,83.30
2023-09-14T02:16:21.047Z,83.40
2023-09-14T02:21:23.249Z,83.50
2023-09-14T02:26:25.431Z,82.40
2023-09-14T02:31:27.856Z,80.90
2023-09-14T02:36:30.117Z,82.70
2023-09-14T02:41:33.741Z,82.70
2023-09-14T02:46:35.969Z,81.00
2023-09-14T02:51:38.154Z,85.40
2023-09-14T02:56:41.689Z,84.70
2023-09-14T03:01:50.979Z,84.50
2023-09-14T03:06:55.868Z,84.10
2023-09-14T03:11:58.421Z,83.60
2023-09-14T03:17:00.767Z,83.20
2023-09-14T03:22:04.048Z,79.70
2023-09-14T03:27:06.636Z,82.10
2023-09-14T03:32:09.501Z,80.70
2023-09-14T03:37:12.120Z,81.30
2023-09-14T03:42:14.420Z,82.20
2023-09-14T03:47:17.364Z,86.70
2023-09-14T03:52:19.526Z,87.00
2023-09-14T03:57:22.375Z,90.40
2023-09-14T04:02:25.606Z,91.90
2023-09-14T04:07:27.799Z,91.10
2023-09-14T04:12:29.946Z,90.30
2023-09-14T04:17:32.216Z,89.60
2023-09-14T04:22:35.589Z,87.90
2023-09-14T04:27:37.874Z,89.20
2023-09-14T04:32:40.359Z,90.50
2023-09-14T04:37:42.707Z,90.00
2023-09-14T04:42:45.008Z,92.10
2023-09-14T04:47:47.671Z,93.50
2023-09-14T04:52:50.578Z,94.70
2023-09-14T04:57:53.450Z,95.00
2023-09-14T05:02:56.610Z,93.50
2023-09-14T05:08:00.047Z,90.00
2023-09-14T05:13:03.969Z,91.10
2023-09-14T05:18:07.992Z,94.00
2023-09-14T05:23:10.557Z,95.30
2023-09-14T05:28:13.964Z,93.30
2023-09-14T05:33:16.570Z,92.20
2023-09-14T05:38:18.889Z,93.20
2023-09-14T05:43:21.234Z,95.20
2023-09-14T05:48:24.880Z,95.60
2023-09-14T05:53:27.039Z,93.80
2023-09-14T05:58:29.292Z,92.80
2023-09-14T06:03:31.771Z,92.60
2023-09-14T06:08:34.909Z,93.60
2023-09-14T06:13:37.174Z,92.20
2023-09-14T06:18:39.315Z,90.80
2023-09-14T06:23:41.765Z,91.00
2023-09-14T06:28:44.475Z,91.00
2023-09-14T06:33:47.048Z,91.10
2023-09-14T06:38:49.961Z,90.30
2023-09-14T06:43:52.162Z,88.70
2023-09-14T06:48:54.328Z,88.20
2023-09-14T06:53:56.544Z,87.70
2023-09-14T06:58:58.843Z,86.70
2023-09-14T07:04:01.779Z,86.30
2023-09-14T07:09:05.825Z,86.60
2023-09-14T07:14:08.102Z,86.50
2023-09-14T07:19:10.544Z,84.00
2023-09-14T07:24:13.297Z,88.20
2023-09-14T07:29:15.472Z,86.50
2023-09-14T07:34:18.071Z,87.00
2023-09-14T07:39:21.933Z,86.30
2023-09-14T07:44:24.813Z,84.70
2023-09-14T07:49:27.052Z,85.40
2023-09-14T07:54:29.325Z,83.10
2023-09-14T07:59:31.525Z,82.00
2023-09-14T08:04:33.996Z,83.70
2023-09-14T08:09:36.200Z,86.40
2023-09-14T08:14:38.738Z,85.20
2023-09-14T08:19:41.077Z,82.00
2023-09-14T08:24:43.281Z,85.50
2023-09-14T08:29:46.633Z,90.30
2023-09-14T08:34:48.933Z,92.10
2023-09-14T08:39:53.057Z,91.00
2023-09-14T08:44:56.549Z,93.60
2023-09-14T08:50:01.693Z,94.50
2023-09-14T08:55:04.895Z,94.50
2023-09-14T09:00:16.539Z,95.20
2023-09-14T09:05:20.841Z,94.40
2023-09-14T09:10:29.957Z,93.70
2023-09-14T09:15:36.368Z,92.30
2023-09-14T09:20:47.380Z,91.10
2023-09-14T09:25:54.472Z,92.60
2023-09-14T09:30:56.800Z,91.60
2023-09-14T09:36:01.933Z,92.70
2023-09-14T09:41:12.950Z,90.00
2023-09-14T09:46:18.749Z,90.80
2023-09-14T09:51:25.924Z,90.00
2023-09-14T09:56:28.255Z,90.70
2023-09-14T10:01:31.720Z,92.00
2023-09-14T10:06:34.483Z,89.30
2023-09-14T10:11:38.193Z,86.90
2023-09-14T10:16:45.821Z,84.70
2023-09-14T10:21:53.875Z,83.80
2023-09-14T10:26:57.654Z,82.60
2023-09-14T10:32:02.253Z,81.30
2023-09-14T10:37:05.968Z,79.50
2023-09-14T10:42:08.170Z,79.70
2023-09-14T10:47:14.763Z,78.40
2023-09-14T10:52:26.291Z,78.60
2023-09-14T10:57:30.953Z,78.10
2023-09-14T21:17:18.142Z,77.70
2023-09-14T21:22:20.302Z,69.00
2023-09-14T21:27:22.559Z,71.00
2023-09-14T21:32:24.770Z,70.20
2023-09-14T21:37:27.045Z,69.80
2023-09-14T21:42:29.457Z,71.60
2023-09-14T21:47:31.939Z,70.20
2023-09-14T21:52:34.506Z,69.70
2023-09-14T21:57:36.870Z,68.10
2023-09-14T22:02:39.193Z,71.40
2023-09-14T22:07:41.550Z,70.80
2023-09-14T22:12:43.698Z,69.50
2023-09-14T22:17:45.984Z,66.90
2023-09-14T22:22:51.180Z,71.00
2023-09-14T22:27:53.542Z,70.70
2023-09-14T22:32:55.728Z,69.70
2023-09-14T22:37:58.035Z,69.00
2023-09-14T22:43:00.306Z,67.00
2023-09-14T22:48:02.599Z,68.50
2023-09-14T22:53:04.989Z,72.20
2023-09-14T22:58:07.321Z,67.50
2023-09-14T23:03:09.656Z,70.70
2023-09-14T23:08:11.932Z,74.70
2023-09-14T23:13:14.145Z,68.30
2023-09-14T23:18:16.705Z,72.60
2023-09-14T23:23:22.042Z,76.90
2023-09-14T23:28:24.285Z,74.70
2023-09-14T23:33:30.865Z,73.70
2023-09-14T23:38:33.274Z,70.60
2023-09-14T23:43:35.910Z,73.70
2023-09-14T23:48:38.281Z,70.20
2023-09-14T23:53:40.443Z,72.60
2023-09-14T23:58:43.916Z,73.70
